Hlavní strana
METAR-TAF:

METAR-TAF

Letiště :

Dakar, Senegal

zeměpisná šířka: 14-44N, zeměpisná délka: 017-30W, výška: 27 m

Aktuální stav počasí

Zpráva byla vytvořena před 22 minutami, v 00:00 UTC
Jihozápadní vítr 8 kt
Teplota 27°C
Vlhkost vzduchu 84%
Tlak 1013 hPa
Viditelnost: 8000 m
Polojasno ve výšce 1300 ft

METAR: GOOY 190000Z 22008KT 8000 SCT013 27/24 Q1013

Čas: 00:22 (00:22 UTC)

Předpověď počasí

Zpráva byla vytvořena před 52 minutami, v 23:30 UTC
Předpověď platná od 19 v 00 UTC do 20 v 06 UTC
Jihozápadní vítr 8 kt
Viditelnost 10 km a více
Polojasno ve výšce 1300 ft

TAF: GOOY 182330Z 1900/2006 22008KT 9999 SCT013

Stav a předpovědi počasí z více než 4 000 letišť (zprávy METAR a TAF).

Červené a žluté tečky na mapě představují dostupné meteorologické stanice.

Když kurzor umístíte na tečku, zobrazí se název stanice.

Pak kliknutím zobrazíte stav a předpověď počasí.

Chcete-li změnit mapu, kliknutím na zelené tlačítko se znaménkem +mapu přiblížíte, kliknutím na zelené tlačítko se znaménkem – mapu oddálíte a kliknutím na zelené šipky přejdete na sousední mapy.


METAR-TAF: